Flight Track Log - Related Links

Times and Time Zones

All times are in EDT time to prevent confusion due to time zone crossing. See the DAL4165 flight status page for this flight to view local times or setup timezone preferences in your user account.

Time Position Orientation Groundspeed Altitude Reporting Facility
EDT Latitude Longitude Course Direction KTS MPH feet Rate Location/Type
Sun 04:52:58 PM 33.6500 -84.3833 252° West 175 201 2,400  Level Atlanta TRACON
Sun 04:54:04 PM 33.6833 -84.3000 64° Northeast 274 315 4,000 2,095 Climbing Atlanta TRACON
Sun 04:55:00 PM 33.8001 -84.3459 270° West  Level FlightAware Approximate
Sun 04:55:04 PM 33.7500 -84.2833 12° North 303 349 6,800  Level Atlanta TRACON
Sun 04:55:58 PM 33.8167 -84.3167 337° Northwest 287 330 9,200 2,250 Climbing Atlanta TRACON
Sun 04:56:00 PM 33.8001 -84.4776 270° West  Level FlightAware Approximate
Sun 04:57:00 PM 33.8000 -84.6093 270° West  Level FlightAware Approximate
Sun 04:57:04 PM 33.8167 -84.4167 270° West 272 313 11,300  Level Atlanta TRACON
Sun 04:58:00 PM 33.7675 -84.7347 252° West  Level FlightAware Approximate
Sun 04:58:55 PM 33.8033 -84.6114 265° West 346 398 14,100  Level Atlanta Center
Sun 04:59:55 PM 33.7797 -84.7236 256° West 351 404 15,600 1,500 Climbing Atlanta Center
Sun 05:00:55 PM 33.7500 -84.8233 250° West 349 402 17,100 1,100 Climbing Atlanta Center
Sun 05:01:55 PM 33.7219 -84.9428 254° West 371 427 17,800 950 Climbing Atlanta Center
Sun 05:02:55 PM 33.6897 -85.0675 253° West 382 440 19,000 900 Climbing Atlanta Center
Sun 05:03:55 PM 33.6594 -85.1919 254° West 389 448 19,600 700 Climbing Atlanta Center
Sun 05:04:55 PM 33.6519 -85.3242 266° West 401 461 20,400 1,200 Climbing Atlanta Center
Sun 05:05:55 PM 33.6525 -85.4614 270° West 407 468 22,000 1,200 Climbing Atlanta Center
Sun 05:06:55 PM 33.6550 -85.5961 271° West 407 468 22,800 900 Climbing Atlanta Center
Sun 05:07:55 PM 33.6572 -85.7483 271° West 407 468 23,800 1,000 Climbing Atlanta Center
Sun 05:08:55 PM 33.6594 -85.8881 271° West 412 474 24,800 1,050 Climbing Atlanta Center
Sun 05:09:55 PM 33.6592 -86.0281 270° West 417 480 25,900 1,200 Climbing Atlanta Center
Sun 05:10:55 PM 33.6631 -86.1703 272° West 423 487 27,200 1,200 Climbing Atlanta Center
Sun 05:11:55 PM 33.6647 -86.3100 271° West 423 487 28,300 1,200 Climbing Atlanta Center
Sun 05:12:55 PM 33.6664 -86.4500 271° West 423 487 29,600 1,150 Climbing Atlanta Center
Sun 05:13:55 PM 33.6656 -86.5847 270° West 418 481 30,600 1,250 Climbing Atlanta Center
Sun 05:14:55 PM 33.6669 -86.7219 271° West 418 481 32,100 1,215 Climbing Atlanta Center
Sun 05:16:33 PM 33.6750 -86.9425 273° West 401 461 33,800 759 Climbing Memphis Center
Sun 05:17:33 PM 33.7036 -87.0739 285° West 401 461 34,100 650 Climbing Memphis Center
Sun 05:18:33 PM 33.7342 -87.2100 285° West 413 475 35,100 950 Climbing Memphis Center
Sun 05:19:33 PM 33.7606 -87.3464 283° West 413 475 36,000 450 Climbing Memphis Center
Sun 05:20:33 PM 33.7908 -87.4803 285° West 419 482 36,000  Level Memphis Center
Sun 05:21:33 PM 33.8253 -87.6167 287° West 414 476 36,000  Level Memphis Center
Sun 05:22:33 PM 33.8511 -87.7583 282° West 427 491 36,000  Level Memphis Center
Sun 05:23:33 PM 33.8792 -87.8978 284° West 433 498 36,000  Level Memphis Center
Sun 05:24:33 PM 33.9069 -88.0394 283° West 433 498 36,000  Level Memphis Center
Sun 05:25:33 PM 33.9386 -88.1789 285° West 433 498 36,000  Level Memphis Center
Sun 05:26:33 PM 33.9639 -88.3261 282° West 440 506 36,000  Level Memphis Center
Sun 05:27:33 PM 33.9933 -88.4656 284° West 440 506 36,000  Level Memphis Center
Sun 05:28:33 PM 34.0225 -88.6053 284° West 435 501 36,000  Level Memphis Center
Sun 05:29:33 PM 34.0494 -88.7478 283° West 435 501 36,000  Level Memphis Center
Sun 05:30:33 PM 34.0742 -88.8725 283° West 429 494 36,000  Level Memphis Center
Sun 05:31:33 PM 34.1006 -89.0125 283° West 429 494 36,000  Level Memphis Center
Sun 05:32:33 PM 34.1292 -89.1528 284° West 429 494 36,000  Level Memphis Center
Sun 05:33:33 PM 34.1578 -89.3056 283° West 429 494 36,000  Level Memphis Center
Sun 05:34:33 PM 34.1839 -89.4483 283° West 435 501 36,000  Level Memphis Center
Sun 05:35:33 PM 34.2119 -89.5886 284° West 435 501 36,000  Level Memphis Center
Sun 05:36:33 PM 34.2400 -89.7342 283° West 430 495 36,000  Level Memphis Center
Sun 05:37:33 PM 34.2656 -89.8772 282° West 430 495 36,000  Level Memphis Center
Sun 05:38:34 PM 34.2933 -90.0203 283° West 430 495 36,000  Level Memphis Center
Sun 05:39:33 PM 34.3208 -90.1661 283° West 435 501 36,000  Level Memphis Center
Sun 05:40:33 PM 34.3439 -90.2942 282° West 435 501 36,000  Level Memphis Center
Sun 05:41:33 PM 34.3708 -90.4403 283° West 435 501 36,000  Level Memphis Center
Sun 05:42:33 PM 34.3978 -90.5811 283° West 435 501 36,000  Level Memphis Center
Sun 05:43:34 PM 34.4225 -90.7297 281° West 444 511 36,000  Level Memphis Center
Sun 05:44:33 PM 34.4514 -90.8786 283° West 450 518 36,000  Level Memphis Center
Sun 05:45:33 PM 34.4797 -91.0400 282° West 450 518 36,000  Level Memphis Center
Sun 05:46:33 PM 34.5061 -91.1864 282° West 450 518 36,000  Level Memphis Center
Sun 05:47:33 PM 34.5319 -91.3353 282° West 455 524 36,000  Level Memphis Center
Sun 05:48:33 PM 34.5600 -91.4844 283° West 448 516 36,000  Level Memphis Center
Sun 05:49:34 PM 34.5858 -91.6311 282° West 448 516 36,000  Level Memphis Center
Sun 05:50:33 PM 34.6092 -91.7728 281° West 447 514 36,000  Level Memphis Center
Sun 05:51:33 PM 34.6367 -91.9197 283° West 447 514 36,000  Level Memphis Center
Sun 05:52:34 PM 34.6597 -92.0689 281° West 452 520 36,000  Level Memphis Center
Sun 05:53:33 PM 34.6828 -92.2211 280° West 452 520 36,000  Level Memphis Center
Sun 05:54:33 PM 34.7053 -92.3706 280° West 452 520 36,000  Level Memphis Center
Sun 05:55:34 PM 34.7258 -92.5175 280° West 447 514 36,000  Level Memphis Center
Sun 05:56:33 PM 34.7483 -92.6672 280° West 447 514 36,000  Level Memphis Center
Sun 05:57:33 PM 34.7661 -92.8194 278° West 452 520 36,000  Level Memphis Center
Sun 05:58:34 PM 34.7881 -92.9717 280° West 457 526 36,000  Level Memphis Center
Sun 05:59:34 PM 34.8097 -93.1242 280° West 452 520 36,000  Level Memphis Center
Sun 06:00:33 PM 34.8314 -93.2792 280° West 457 526 36,000  Level Memphis Center
Sun 06:01:33 PM 34.8508 -93.4267 279° West 457 526 36,000  Level Memphis Center
Sun 06:02:33 PM 34.8719 -93.5819 279° West 457 526 36,000  Level Memphis Center
Sun 06:03:33 PM 34.8969 -93.7372 281° West 457 526 36,000  Level Memphis Center
Sun 06:04:34 PM 34.9117 -93.8872 277° West 459 528 36,000  Level Memphis Center
Sun 06:05:33 PM 34.9322 -94.0375 280° West 466 536 36,000  Level Memphis Center
Sun 06:06:33 PM 34.9525 -94.1931 279° West 466 536 36,000  Level Memphis Center
Sun 06:07:33 PM 34.9728 -94.3483 279° West 466 536 36,000  Level Memphis Center
Sun 06:08:07 PM 34.9825 -94.4208 279° West 485 558 36,000  Level Fort Worth Center
Sun 06:09:06 PM 35.0008 -94.5747 278° West 490 564 36,000  Level Fort Worth Center
Sun 06:10:06 PM 35.0208 -94.7261 279° West 477 549 36,000  Level Fort Worth Center
Sun 06:11:07 PM 35.0428 -94.8828 280° West 472 543 36,000  Level Fort Worth Center
Sun 06:12:06 PM 35.0625 -95.0369 279° West 467 537 36,000 -101 Level Fort Worth Center
Sun 06:13:06 PM 35.0842 -95.1911 280° West 467 537 35,800 -600 Descending Fort Worth Center
Sun 06:14:06 PM 35.1036 -95.3478 279° West 467 537 34,800 -900 Descending Fort Worth Center
Sun 06:15:06 PM 35.1225 -95.4972 279° West 462 532 34,000 -900 Descending Fort Worth Center
Sun 06:16:06 PM 35.1436 -95.6592 279° West 473 544 33,000 -1,240 Descending Fort Worth Center
Sun 06:17:07 PM 35.1628 -95.8339 278° West 481 554 31,500 -1,800 Descending Fort Worth Center
Sun 06:18:06 PM 35.1814 -95.9986 278° West 486 559 29,400 -2,319 Descending Fort Worth Center
Sun 06:19:06 PM 35.1997 -96.1583 278° West 486 559 26,900 -2,500 Descending Fort Worth Center
Sun 06:20:06 PM 35.2117 -96.3133 275° West 468 539 24,400 -2,500 Descending Fort Worth Center
Sun 06:21:06 PM 35.2169 -96.4658 272° West 460 529 21,900 -2,550 Descending Fort Worth Center
Sun 06:22:06 PM 35.2203 -96.6131 272° West 455 524 19,300 -2,737 Descending Fort Worth Center
Sun 06:23:00 PM 35.2272 -96.7400 274° West 429 494 16,700 -3,078 Descending Fort Worth Center
Sun 06:24:01 PM 35.2444 -96.8875 278° West 408 470 13,400 -2,754 Descending Fort Worth Center
Sun 06:25:02 PM 35.2722 -97.0144 285° West 370 426 11,100 -1,143 Descending Fort Worth Center
Sun 06:26:07 PM 35.2953 -97.1364 283° West 375 432 11,000 -242 Descending Fort Worth Center
Sun 06:27:06 PM 35.2872 -97.2583 265° West 347 399 10,600 -504 Descending Fort Worth Center
Sun 06:28:06 PM 35.3269 -97.3447 299° West 343 395 10,000 -336 Descending Fort Worth Center
Sun 06:29:11 PM 35.3978 -97.4314 315° West 259 298 9,900 -800 Descending Fort Worth Center
Sun 06:30:06 PM 35.4583 -97.4442 350° North 226 260 8,400 -1,878 Descending Fort Worth Center
Sun 06:31:06 PM 35.5208 -97.4594 349° North 240 276 6,300 -2,000 Descending Fort Worth Center
Sun 06:32:06 PM 35.5439 -97.5131 298° West 188 216 4,400 -1,750 Descending Fort Worth Center
Sun 06:33:06 PM 35.5186 -97.5767 244° Southwest 168 193 2,800 -1,600 Descending Fort Worth Center

Login

Don't have an account? Register now (free) for customized features, flight alerts, and more!